Time;durP1;ratioP1;P1;durP2;ratioP2;P2;SDS_P1;SDS_P2;PMS_P1;PMS_P2;Temp;Humidity;BMP_temperature;BMP_pressure;BME280_temperature;BME280_humidity;BME280_pressure;Samples;Min_cycle;Max_cycle;Signal;HPM_P1;HPM_P2
2021/08/08 00:00:57;;;;;;;0.65;0.40;;;23.30;62.00;;;;;;4827908;29;87721;-13
2021/08/08 00:03:22;;;;;;;0.25;0.20;;;23.30;62.00;;;;;;4828067;29;87103;-13
2021/08/08 00:05:51;;;;;;;0.65;0.30;;;23.30;62.10;;;;;;4826319;29;88092;-13
2021/08/08 00:08:18;;;;;;;0.60;0.40;;;23.30;62.10;;;;;;4826096;29;92420;-13
2021/08/08 00:10:44;;;;;;;1.02;0.25;;;23.30;62.00;;;;;;4828175;29;90175;-13
2021/08/08 00:13:11;;;;;;;0.52;0.30;;;23.30;62.00;;;;;;4827372;29;87100;-13
2021/08/08 00:15:38;;;;;;;0.55;0.30;;;23.30;62.00;;;;;;4828903;29;87070;-13
2021/08/08 00:18:07;;;;;;;1.02;0.30;;;23.30;62.10;;;;;;4826631;29;90625;-13
2021/08/08 00:20:34;;;;;;;1.50;0.25;;;23.30;62.00;;;;;;4828232;29;87345;-13
2021/08/08 00:23:00;;;;;;;0.20;0.20;;;23.30;62.20;;;;;;4826446;29;87368;-13
2021/08/08 00:25:25;;;;;;;1.33;0.40;;;23.30;62.10;;;;;;4826604;29;87059;-13
2021/08/08 00:27:52;;;;;;;0.80;0.20;;;23.30;62.10;;;;;;4826031;29;88132;-13
2021/08/08 00:30:20;;;;;;;0.77;0.30;;;23.30;62.10;;;;;;4825136;29;88802;-13
2021/08/08 00:32:46;;;;;;;0.40;0.28;;;23.30;62.10;;;;;;4825354;29;87996;-13
2021/08/08 00:35:12;;;;;;;0.90;0.30;;;23.30;62.10;;;;;;4824635;29;88168;-13
2021/08/08 00:37:42;;;;;;;0.63;0.20;;;23.30;62.10;;;;;;4826260;29;88143;-13
2021/08/08 00:40:08;;;;;;;0.70;0.40;;;23.30;62.10;;;;;;4824311;29;89441;-13
2021/08/08 00:42:34;;;;;;;0.73;0.22;;;23.30;62.10;;;;;;4826793;29;87129;-13
2021/08/08 00:45:00;;;;;;;0.88;0.50;;;23.30;62.10;;;;;;4824925;29;88229;-13
2021/08/08 00:47:25;;;;;;;0.57;0.30;;;23.30;62.10;;;;;;4824725;29;89350;-13
2021/08/08 00:49:51;;;;;;;0.55;0.30;;;23.20;62.10;;;;;;4826513;29;87691;-12
2021/08/08 00:52:17;;;;;;;0.43;0.25;;;23.30;62.10;;;;;;4824611;29;87223;-12
2021/08/08 00:54:42;;;;;;;2.15;0.40;;;23.30;62.10;;;;;;4824110;29;88044;-13
2021/08/08 00:57:08;;;;;;;0.70;0.30;;;23.30;62.10;;;;;;4823742;29;90536;-17
2021/08/08 00:59:33;;;;;;;0.80;0.38;;;23.30;62.10;;;;;;4824217;29;90028;-13
2021/08/08 01:02:00;;;;;;;1.58;0.30;;;23.30;62.10;;;;;;4824440;29;87162;-13
2021/08/08 01:04:34;;;;;;;0.50;0.30;;;23.20;62.10;;;;;;4824068;29;90572;-13
2021/08/08 01:07:06;;;;;;;0.20;0.20;;;23.30;62.10;;;;;;4824510;29;89073;-13
2021/08/08 01:09:37;;;;;;;0.68;0.40;;;23.30;62.10;;;;;;4825512;29;87757;-13
2021/08/08 01:12:03;;;;;;;0.60;0.40;;;23.20;62.10;;;;;;4824135;29;87098;-13
2021/08/08 01:14:30;;;;;;;0.20;0.20;;;23.20;62.10;;;;;;4823805;29;90499;-13
2021/08/08 01:16:55;;;;;;;0.38;0.30;;;23.20;62.10;;;;;;4824951;29;87644;-13
2021/08/08 01:19:24;;;;;;;0.57;0.38;;;23.20;62.10;;;;;;4823847;29;89727;-13
2021/08/08 01:21:51;;;;;;;0.82;0.22;;;23.20;62.10;;;;;;4823631;29;88074;-13
2021/08/08 01:24:17;;;;;;;0.93;0.30;;;23.20;62.10;;;;;;4825611;29;87156;-13
2021/08/08 01:26:45;;;;;;;0.73;0.30;;;23.20;62.10;;;;;;4825656;29;87519;-13
2021/08/08 01:29:11;;;;;;;0.80;0.30;;;23.20;62.10;;;;;;4824666;29;87909;-13
2021/08/08 01:31:38;;;;;;;0.65;0.30;;;23.20;62.20;;;;;;4823593;29;87481;-13
2021/08/08 01:34:03;;;;;;;0.40;0.20;;;23.20;62.10;;;;;;4825902;29;87226;-13
2021/08/08 01:36:29;;;;;;;1.55;0.50;;;23.20;62.10;;;;;;4785034;29;1217398;-13
2021/08/08 01:39:01;;;;;;;0.57;0.45;;;23.20;62.10;;;;;;4825733;29;90728;-13
2021/08/08 01:41:32;;;;;;;0.32;0.30;;;23.30;62.20;;;;;;4827035;29;87047;-13
2021/08/08 01:44:00;;;;;;;0.30;0.30;;;23.20;62.10;;;;;;4824214;29;88595;-12
2021/08/08 01:46:27;;;;;;;0.40;0.40;;;23.20;62.10;;;;;;4825596;29;89590;-13
2021/08/08 01:48:55;;;;;;;0.45;0.32;;;23.20;62.10;;;;;;4825670;29;88785;-13
2021/08/08 01:51:26;;;;;;;0.43;0.20;;;23.20;62.20;;;;;;4826692;29;86999;-13
2021/08/08 01:53:52;;;;;;;0.43;0.30;;;23.20;62.20;;;;;;4826860;29;88678;-13
2021/08/08 01:56:17;;;;;;;0.30;0.30;;;23.20;62.20;;;;;;4825743;29;89419;-13
2021/08/08 01:58:46;;;;;;;0.35;0.25;;;23.20;62.20;;;;;;4825149;29;88819;-13
2021/08/08 02:01:12;;;;;;;1.42;0.40;;;23.20;62.20;;;;;;4825647;29;87230;-13
2021/08/08 02:03:39;;;;;;;0.90;0.30;;;23.20;62.20;;;;;;4827297;29;88667;-13
2021/08/08 02:06:07;;;;;;;1.67;0.40;;;23.20;62.20;;;;;;4812337;29;89475;-13
2021/08/08 02:08:32;;;;;;;0.80;0.30;;;23.20;62.20;;;;;;4811313;29;87154;-13
2021/08/08 02:10:58;;;;;;;0.30;0.30;;;23.20;62.20;;;;;;4809765;29;88019;-13
2021/08/08 02:13:24;;;;;;;1.15;0.50;;;23.20;62.20;;;;;;4825588;29;88178;-13
2021/08/08 02:15:50;;;;;;;0.45;0.20;;;23.20;62.20;;;;;;4809830;29;89183;-13
2021/08/08 02:18:16;;;;;;;0.80;0.32;;;23.20;62.20;;;;;;4809730;29;88942;-13
2021/08/08 02:20:46;;;;;;;1.00;0.45;;;23.20;62.20;;;;;;4809694;29;87227;-13
2021/08/08 02:23:12;;;;;;;0.68;0.43;;;23.10;62.10;;;;;;4810930;29;88125;-12
2021/08/08 02:25:38;;;;;;;0.75;0.50;;;23.20;62.20;;;;;;4811482;29;87996;-13
2021/08/08 02:28:07;;;;;;;0.25;0.20;;;23.20;62.20;;;;;;4810070;29;89134;-13
2021/08/08 02:30:34;;;;;;;0.63;0.30;;;23.20;62.20;;;;;;4825700;29;87231;-13
2021/08/08 02:33:00;;;;;;;1.55;0.50;;;23.20;62.20;;;;;;4827410;29;87962;-13
2021/08/08 02:35:26;;;;;;;0.73;0.30;;;23.10;62.20;;;;;;4826733;29;90121;-13
2021/08/08 02:37:51;;;;;;;0.57;0.30;;;23.10;62.20;;;;;;4827820;29;91340;-13
2021/08/08 02:40:17;;;;;;;0.88;0.40;;;23.10;62.20;;;;;;4828493;29;87035;-13
2021/08/08 02:42:43;;;;;;;0.93;0.30;;;23.10;62.20;;;;;;4827981;29;88485;-13
2021/08/08 02:45:09;;;;;;;0.98;0.60;;;23.10;62.20;;;;;;4828117;29;89111;-13
2021/08/08 02:47:34;;;;;;;0.35;0.35;;;23.10;62.20;;;;;;4827154;29;89263;-12
2021/08/08 02:50:00;;;;;;;0.38;0.35;;;23.10;62.20;;;;;;4827412;29;87649;-12
2021/08/08 02:52:26;;;;;;;1.63;0.40;;;23.10;62.20;;;;;;4828257;29;88928;-13
2021/08/08 02:54:52;;;;;;;0.43;0.30;;;23.10;62.20;;;;;;4828319;29;89499;-13
2021/08/08 02:57:17;;;;;;;2.97;0.40;;;23.10;62.20;;;;;;4827884;29;89193;-13
2021/08/08 02:59:45;;;;;;;1.15;0.43;;;23.10;62.20;;;;;;4826669;29;88541;-13
2021/08/08 03:02:11;;;;;;;0.70;0.50;;;23.10;62.20;;;;;;4827393;29;88195;-13
2021/08/08 03:04:36;;;;;;;0.93;0.40;;;23.10;62.20;;;;;;4827688;29;89451;-13
2021/08/08 03:07:02;;;;;;;0.52;0.40;;;23.10;62.20;;;;;;4827664;29;91336;-13
2021/08/08 03:09:28;;;;;;;0.55;0.40;;;23.10;62.20;;;;;;4828210;29;87249;-13
2021/08/08 03:11:54;;;;;;;0.65;0.43;;;23.10;62.20;;;;;;4827739;29;89773;-13
2021/08/08 03:14:20;;;;;;;1.05;0.40;;;23.10;62.20;;;;;;4828019;29;89563;-13
2021/08/08 03:16:47;;;;;;;1.45;0.65;;;23.10;62.20;;;;;;4829104;29;87305;-13
2021/08/08 03:19:14;;;;;;;0.80;0.50;;;23.10;62.20;;;;;;4829304;29;87011;-20
2021/08/08 03:21:40;;;;;;;1.85;0.55;;;23.10;62.20;;;;;;4827584;29;88225;-13
2021/08/08 03:24:06;;;;;;;0.85;0.38;;;23.10;62.20;;;;;;4826100;29;90353;-13
2021/08/08 03:26:32;;;;;;;1.55;0.68;;;23.10;62.20;;;;;;4826595;29;91966;-13
2021/08/08 03:29:00;;;;;;;0.63;0.52;;;23.10;62.20;;;;;;4826419;29;87240;-13
2021/08/08 03:31:27;;;;;;;0.90;0.45;;;23.10;62.20;;;;;;4825909;29;89729;-12
2021/08/08 03:33:54;;;;;;;0.30;0.30;;;23.10;62.20;;;;;;4826532;29;89584;-13
2021/08/08 03:36:21;;;;;;;0.80;0.50;;;23.10;62.20;;;;;;4828530;29;87337;-13
2021/08/08 03:38:49;;;;;;;0.90;0.50;;;23.10;62.20;;;;;;4826565;29;88192;-13
2021/08/08 03:41:16;;;;;;;0.93;0.40;;;23.10;62.20;;;;;;4826915;29;89976;-13
2021/08/08 03:43:41;;;;;;;0.85;0.45;;;23.10;62.20;;;;;;4827385;29;91087;-12
2021/08/08 03:46:07;;;;;;;0.47;0.30;;;23.10;62.20;;;;;;4827132;29;90599;-13
2021/08/08 03:48:35;;;;;;;0.82;0.50;;;23.10;62.20;;;;;;4826728;29;88059;-12
2021/08/08 03:51:01;;;;;;;0.95;0.57;;;23.10;62.20;;;;;;4828405;29;87569;-13
2021/08/08 03:53:26;;;;;;;0.50;0.40;;;23.10;62.20;;;;;;4827634;29;89844;-13
2021/08/08 03:55:52;;;;;;;0.60;0.40;;;23.10;62.20;;;;;;4826781;29;90674;-13
2021/08/08 03:58:22;;;;;;;1.52;0.75;;;23.10;62.20;;;;;;4826886;29;87115;-13
2021/08/08 04:00:47;;;;;;;1.02;0.70;;;23.00;62.20;;;;;;4827297;29;88443;-13
2021/08/08 04:03:13;;;;;;;0.55;0.40;;;23.00;62.20;;;;;;4826355;29;88411;-13
2021/08/08 04:05:38;;;;;;;1.45;0.50;;;23.00;62.20;;;;;;4826922;29;89271;-12
2021/08/08 04:08:04;;;;;;;0.75;0.45;;;23.10;62.20;;;;;;4826343;29;87065;-12
2021/08/08 04:10:30;;;;;;;0.75;0.40;;;23.00;62.10;;;;;;4826221;29;89146;-13
2021/08/08 04:12:55;;;;;;;0.95;0.40;;;23.10;62.20;;;;;;4825826;29;90691;-13
2021/08/08 04:15:22;;;;;;;1.13;0.40;;;23.00;62.20;;;;;;4827888;29;88832;-13
2021/08/08 04:17:48;;;;;;;1.00;0.60;;;23.00;62.20;;;;;;4827772;29;87338;-13
2021/08/08 04:20:13;;;;;;;0.90;0.70;;;23.00;62.20;;;;;;4825813;29;87869;-13
2021/08/08 04:22:39;;;;;;;1.58;0.50;;;23.00;62.20;;;;;;4826147;29;89189;-13
2021/08/08 04:25:05;;;;;;;0.57;0.55;;;23.00;62.20;;;;;;4826563;29;87960;-13
2021/08/08 04:27:31;;;;;;;1.25;0.50;;;23.00;62.20;;;;;;4826211;29;87089;-13
2021/08/08 04:29:56;;;;;;;1.08;0.60;;;23.00;62.20;;;;;;4826845;29;89738;-23
2021/08/08 04:32:23;;;;;;;0.47;0.40;;;23.00;62.20;;;;;;4826153;29;89387;-13
2021/08/08 04:34:49;;;;;;;0.60;0.40;;;23.00;62.20;;;;;;4825004;29;89552;-13
2021/08/08 04:37:15;;;;;;;0.60;0.50;;;23.00;62.20;;;;;;4824955;29;88006;-13
2021/08/08 04:39:40;;;;;;;1.10;0.40;;;23.00;62.20;;;;;;4825261;29;88418;-13
2021/08/08 04:42:08;;;;;;;0.77;0.50;;;23.00;62.20;;;;;;4825231;29;90221;-13
2021/08/08 04:44:34;;;;;;;1.30;0.40;;;23.00;62.20;;;;;;4825995;29;88863;-13
2021/08/08 04:47:00;;;;;;;1.95;0.47;;;23.00;62.20;;;;;;4826293;29;87133;-13
2021/08/08 04:49:27;;;;;;;1.23;0.60;;;23.00;62.20;;;;;;4825382;29;88256;-13
2021/08/08 04:51:53;;;;;;;1.13;0.70;;;23.00;62.20;;;;;;4826067;29;89644;-13
2021/08/08 04:54:19;;;;;;;1.10;0.60;;;23.00;62.30;;;;;;4826935;29;89116;-13
2021/08/08 04:56:45;;;;;;;1.33;0.65;;;23.00;62.30;;;;;;4826806;29;87089;-13
2021/08/08 04:59:11;;;;;;;1.17;0.60;;;23.00;62.30;;;;;;4825085;29;88009;-13
2021/08/08 05:01:39;;;;;;;1.40;0.60;;;23.00;62.20;;;;;;4826403;29;88702;-13
2021/08/08 05:04:04;;;;;;;1.20;0.57;;;23.00;62.20;;;;;;4826216;29;90026;-12
2021/08/08 05:06:30;;;;;;;1.58;0.68;;;23.00;62.20;;;;;;4826340;29;87122;-13
2021/08/08 05:08:58;;;;;;;1.38;0.90;;;23.00;62.20;;;;;;4825803;29;88283;-13
2021/08/08 05:11:24;;;;;;;1.13;0.60;;;23.00;62.30;;;;;;4826079;29;90893;-13
2021/08/08 05:13:52;;;;;;;1.15;0.60;;;23.00;62.20;;;;;;4826200;29;89074;-13
2021/08/08 05:16:18;;;;;;;1.05;0.63;;;23.00;62.30;;;;;;4825884;29;87049;-13
2021/08/08 05:18:43;;;;;;;1.30;0.80;;;23.00;62.30;;;;;;4826693;29;89444;-13
2021/08/08 05:21:12;;;;;;;1.63;0.60;;;23.00;62.30;;;;;;4825626;29;89283;-13
2021/08/08 05:23:46;;;;;;;1.33;0.60;;;23.00;62.30;;;;;;4824716;29;88007;-13
2021/08/08 05:26:12;;;;;;;1.20;0.65;;;23.00;62.20;;;;;;4825043;29;88105;-13
2021/08/08 05:28:41;;;;;;;1.05;0.60;;;23.00;62.20;;;;;;4825285;29;88245;-13
2021/08/08 05:31:09;;;;;;;0.85;0.52;;;23.00;62.20;;;;;;4826584;29;87455;-13
2021/08/08 05:33:35;;;;;;;0.70;0.60;;;23.00;62.20;;;;;;4827231;29;87438;-13
2021/08/08 05:36:03;;;;;;;1.05;0.60;;;23.00;62.30;;;;;;4825414;29;87073;-12
2021/08/08 05:38:28;;;;;;;1.13;0.60;;;23.00;62.20;;;;;;4826970;29;88112;-13
2021/08/08 05:40:54;;;;;;;0.60;0.43;;;23.00;62.20;;;;;;4828533;29;89315;-13
2021/08/08 05:43:22;;;;;;;1.20;0.60;;;23.00;62.20;;;;;;4828827;29;88003;-13
2021/08/08 05:45:48;;;;;;;0.73;0.50;;;23.00;62.20;;;;;;4828412;29;87513;-13
2021/08/08 05:48:14;;;;;;;0.82;0.50;;;23.00;62.20;;;;;;4828838;29;87945;-13
2021/08/08 05:50:40;;;;;;;0.63;0.50;;;23.00;62.20;;;;;;4829422;29;89172;-13
2021/08/08 05:53:06;;;;;;;1.52;0.55;;;23.00;62.20;;;;;;4828848;29;90018;-13
2021/08/08 05:55:34;;;;;;;0.68;0.50;;;23.00;62.20;;;;;;4829495;29;87145;-13
2021/08/08 05:57:59;;;;;;;0.68;0.45;;;23.00;62.10;;;;;;4828622;29;90715;-13
2021/08/08 06:00:28;;;;;;;0.63;0.57;;;23.00;62.10;;;;;;4828665;29;89239;-13
2021/08/08 06:02:54;;;;;;;0.68;0.47;;;23.10;62.10;;;;;;4828841;29;88887;-13
2021/08/08 06:05:19;;;;;;;0.50;0.50;;;23.10;62.00;;;;;;4828785;29;87104;-13
2021/08/08 06:07:45;;;;;;;0.85;0.57;;;23.10;62.00;;;;;;4828655;29;88374;-13
2021/08/08 06:10:11;;;;;;;0.73;0.40;;;23.10;62.00;;;;;;4828384;29;88668;-13
2021/08/08 06:12:37;;;;;;;1.67;0.73;;;23.10;61.90;;;;;;4828277;29;90650;-13
2021/08/08 06:15:05;;;;;;;1.35;0.65;;;23.10;61.90;;;;;;4827507;29;88090;-13
2021/08/08 06:17:31;;;;;;;2.17;0.55;;;23.10;61.90;;;;;;4829689;29;87094;-13
2021/08/08 06:20:00;;;;;;;2.13;0.65;;;23.20;62.00;;;;;;4828058;29;89593;-12
2021/08/08 06:22:26;;;;;;;1.45;0.70;;;23.20;61.90;;;;;;4829924;29;86969;-13
2021/08/08 06:24:51;;;;;;;2.30;0.75;;;23.10;61.90;;;;;;4828533;29;87262;-13
2021/08/08 06:27:17;;;;;;;1.50;0.93;;;23.20;61.80;;;;;;4827827;29;88135;-13
2021/08/08 06:29:44;;;;;;;4.22;1.05;;;23.20;61.70;;;;;;4827759;29;91150;-12
2021/08/08 06:32:09;;;;;;;5.35;1.30;;;23.20;61.70;;;;;;4828417;29;90822;-13
2021/08/08 06:34:35;;;;;;;4.20;1.00;;;23.20;61.60;;;;;;4828259;29;87400;-13
2021/08/08 06:37:01;;;;;;;6.32;1.50;;;23.20;61.50;;;;;;4827814;29;88255;-13
2021/08/08 06:39:26;;;;;;;5.18;1.48;;;23.10;60.80;;;;;;4827554;29;90085;-13
2021/08/08 06:41:52;;;;;;;5.88;1.50;;;23.20;60.70;;;;;;4827526;29;91803;-13
2021/08/08 06:44:17;;;;;;;11.95;2.13;;;23.20;60.50;;;;;;4828050;29;87145;-13
2021/08/08 06:46:43;;;;;;;12.38;1.75;;;23.10;59.90;;;;;;4828012;29;89301;-12
2021/08/08 06:49:08;;;;;;;30.73;5.22;;;23.20;59.80;;;;;;4826777;29;89314;-13
2021/08/08 06:51:34;;;;;;;17.60;4.10;;;23.10;59.50;;;;;;4827080;29;89725;-13
2021/08/08 06:54:00;;;;;;;25.83;5.50;;;23.10;59.60;;;;;;4827371;29;87387;-13
2021/08/08 06:56:25;;;;;;;16.95;3.80;;;23.10;59.60;;;;;;4827273;29;89991;-13
2021/08/08 06:58:51;;;;;;;25.55;5.82;;;23.10;59.70;;;;;;4827970;29;88745;-13
2021/08/08 07:01:17;;;;;;;22.98;4.80;;;23.10;59.90;;;;;;4827807;29;87976;-13
2021/08/08 07:03:43;;;;;;;19.08;4.82;;;23.20;59.50;;;;;;4829011;29;88050;-13
2021/08/08 07:06:08;;;;;;;22.90;5.35;;;23.20;59.10;;;;;;4827398;29;88099;-13
2021/08/08 07:08:37;;;;;;;22.40;4.28;;;23.20;59.10;;;;;;4825588;29;89275;-13
2021/08/08 07:11:02;;;;;;;21.17;4.90;;;23.20;58.80;;;;;;4823213;29;88967;-13
2021/08/08 07:13:28;;;;;;;21.08;3.92;;;23.20;59.00;;;;;;4842591;29;87324;-15
2021/08/08 07:15:54;;;;;;;23.25;4.22;;;23.20;58.90;;;;;;4828644;29;87067;-15
2021/08/08 07:18:19;;;;;;;17.90;4.07;;;23.20;58.70;;;;;;4826357;29;89246;-13
2021/08/08 07:20:45;;;;;;;23.45;4.47;;;23.30;58.70;;;;;;4826052;29;91038;-13
2021/08/08 07:23:10;;;;;;;18.88;4.35;;;23.20;58.30;;;;;;4826376;29;87406;-15
2021/08/08 07:25:36;;;;;;;19.95;4.13;;;23.20;58.30;;;;;;4826412;29;87939;-13
2021/08/08 07:28:02;;;;;;;18.80;3.88;;;23.20;58.10;;;;;;4825417;29;92467;-13
2021/08/08 07:30:28;;;;;;;17.02;3.83;;;23.20;58.20;;;;;;4826174;29;89899;-15
2021/08/08 07:32:54;;;;;;;13.98;3.22;;;23.20;58.10;;;;;;4826745;29;87514;-15
2021/08/08 07:35:19;;;;;;;14.57;4.00;;;23.20;58.40;;;;;;4826473;29;88104;-13
2021/08/08 07:37:45;;;;;;;21.92;4.07;;;23.20;58.40;;;;;;4826326;29;89514;-13
2021/08/08 07:40:12;;;;;;;13.85;3.53;;;23.20;58.00;;;;;;4826193;29;91219;-13
2021/08/08 07:42:37;;;;;;;16.88;3.63;;;23.20;58.20;;;;;;4826724;29;87135;-13
2021/08/08 07:45:04;;;;;;;14.95;3.42;;;23.20;57.90;;;;;;4825709;29;88443;-13
2021/08/08 07:47:29;;;;;;;16.02;3.13;;;23.20;58.00;;;;;;4825770;29;90764;-13
2021/08/08 07:49:55;;;;;;;14.07;3.28;;;23.20;58.60;;;;;;4826214;29;90623;-13
2021/08/08 07:52:20;;;;;;;8.20;2.20;;;23.20;58.00;;;;;;4824531;29;88306;-13
2021/08/08 07:54:47;;;;;;;14.18;2.80;;;23.20;57.80;;;;;;4826601;29;89916;-13
2021/08/08 07:57:13;;;;;;;12.65;3.00;;;23.20;57.80;;;;;;4825969;29;89634;-13
2021/08/08 07:59:38;;;;;;;11.10;2.30;;;23.20;57.50;;;;;;4826078;29;88989;-13
2021/08/08 08:02:04;;;;;;;12.02;3.33;;;23.20;57.50;;;;;;4825197;29;87384;-13
2021/08/08 08:04:30;;;;;;;9.55;2.53;;;23.30;57.80;;;;;;4824943;29;88299;-13
2021/08/08 08:06:57;;;;;;;10.38;2.47;;;23.30;57.90;;;;;;4825329;29;87949;-13
2021/08/08 08:09:23;;;;;;;11.65;2.70;;;23.30;57.80;;;;;;4826987;29;90563;-13
2021/08/08 08:11:49;;;;;;;15.13;2.67;;;23.30;57.70;;;;;;4826515;29;87043;-13
2021/08/08 08:14:14;;;;;;;9.80;2.35;;;23.30;57.70;;;;;;4826168;29;88337;-13
2021/08/08 08:16:40;;;;;;;15.80;2.80;;;23.30;57.80;;;;;;4826093;29;90739;-13
2021/08/08 08:19:06;;;;;;;10.85;2.47;;;23.30;57.80;;;;;;4827047;29;91350;-13
2021/08/08 08:21:31;;;;;;;15.13;2.58;;;23.30;57.80;;;;;;4827102;29;87024;-13
2021/08/08 08:23:57;;;;;;;13.75;2.97;;;23.30;57.80;;;;;;4824798;29;88451;-13
2021/08/08 08:26:22;;;;;;;11.75;2.67;;;23.40;57.90;;;;;;4825103;29;89392;-13
2021/08/08 08:28:48;;;;;;;9.77;2.45;;;23.40;57.50;;;;;;4826457;29;88896;-13
2021/08/08 08:31:14;;;;;;;11.18;2.45;;;23.40;57.30;;;;;;4826382;29;87288;-13
2021/08/08 08:33:39;;;;;;;15.60;2.30;;;23.40;57.50;;;;;;4826062;29;87965;-13
2021/08/08 08:36:05;;;;;;;8.02;1.95;;;23.30;57.40;;;;;;4825945;29;89100;-13
2021/08/08 08:38:31;;;;;;;10.27;2.22;;;23.30;57.50;;;;;;4825447;29;88765;-13
2021/08/08 08:40:57;;;;;;;8.50;2.10;;;23.30;57.50;;;;;;4824140;29;88157;-13
2021/08/08 08:43:25;;;;;;;9.70;2.35;;;23.30;57.30;;;;;;4824447;29;90581;-13
2021/08/08 08:45:52;;;;;;;8.23;2.13;;;23.30;57.30;;;;;;4839958;29;90144;-13
2021/08/08 08:48:18;;;;;;;11.00;2.80;;;23.30;57.80;;;;;;4825324;29;88892;-13
2021/08/08 08:50:50;;;;;;;9.82;2.25;;;23.30;57.90;;;;;;4827154;29;87044;-13
2021/08/08 08:53:16;;;;;;;9.40;1.85;;;23.30;58.40;;;;;;4825779;29;88227;-12
2021/08/08 08:55:42;;;;;;;8.10;1.90;;;23.30;58.10;;;;;;4825829;29;90077;-12
2021/08/08 08:58:08;;;;;;;9.73;2.40;;;23.40;58.30;;;;;;4826225;29;89231;-13
2021/08/08 09:00:34;;;;;;;11.70;2.47;;;23.40;58.60;;;;;;4826607;29;87085;-13
2021/08/08 09:03:00;;;;;;;10.05;2.42;;;23.40;58.80;;;;;;4825953;29;88775;-14
2021/08/08 09:05:27;;;;;;;11.25;2.80;;;23.40;58.90;;;;;;4824340;29;90621;-13
2021/08/08 09:07:52;;;;;;;11.40;2.47;;;23.40;59.10;;;;;;4825125;29;89807;-13
2021/08/08 09:10:22;;;;;;;10.75;2.95;;;23.40;59.20;;;;;;4825846;29;87064;-13
2021/08/08 09:13:00;;;;;;;10.10;3.45;;;23.40;59.40;;;;;;4825530;29;88578;-12
2021/08/08 09:15:44;;;;;;;10.73;3.10;;;23.50;59.70;;;;;;4827144;29;87686;-13
2021/08/08 09:18:18;;;;;;;8.07;2.63;;;23.50;59.80;;;;;;4826826;29;87663;-13
2021/08/08 09:20:45;;;;;;;12.80;3.72;;;23.50;59.90;;;;;;4827490;29;87115;-13
2021/08/08 09:23:12;;;;;;;7.70;3.40;;;23.50;60.20;;;;;;4827310;29;86927;-13
2021/08/08 09:25:55;;;;;;;15.07;3.97;;;23.50;60.40;;;;;;4840657;29;89464;-13
2021/08/08 09:28:28;;;;;;;12.88;3.97;;;23.50;60.50;;;;;;4827227;29;87943;-13
2021/08/08 09:30:55;;;;;;;9.57;2.90;;;23.50;60.50;;;;;;4827299;29;88302;-13
2021/08/08 09:33:20;;;;;;;7.80;3.05;;;23.50;60.70;;;;;;4826904;29;87037;-14
2021/08/08 09:35:53;;;;;;;13.48;3.63;;;23.50;60.70;;;;;;4824730;29;89326;-13
2021/08/08 09:38:20;;;;;;;16.70;3.30;;;23.50;60.80;;;;;;4826754;29;87291;-12
2021/08/08 09:40:57;;;;;;;13.15;3.40;;;23.50;60.80;;;;;;4825584;29;87134;-13
2021/08/08 09:43:28;;;;;;;12.02;2.90;;;23.50;60.60;;;;;;4825718;29;88100;-13
2021/08/08 09:45:54;;;;;;;10.57;3.03;;;23.50;60.50;;;;;;4827156;29;87278;-13
2021/08/08 09:48:20;;;;;;;222.13;47.35;;;23.50;60.40;;;;;;4825666;29;89255;-13
2021/08/08 09:50:46;;;;;;;563.00;116.90;;;23.50;60.30;;;;;;4824735;29;87276;-13
2021/08/08 09:53:20;;;;;;;541.75;117.10;;;23.50;60.20;;;;;;4825787;29;87009;-13
2021/08/08 09:55:46;;;;;;;516.75;110.72;;;23.50;60.10;;;;;;4838940;29;90044;-13
2021/08/08 09:58:22;;;;;;;459.50;101.85;;;23.50;60.10;;;;;;4824065;29;90342;-13
2021/08/08 10:00:49;;;;;;;436.88;95.03;;;23.50;60.40;;;;;;4825150;29;87545;-13
2021/08/08 10:03:17;;;;;;;424.58;91.75;;;23.50;60.60;;;;;;4826076;29;87153;-13
2021/08/08 10:05:44;;;;;;;408.17;88.35;;;23.50;60.70;;;;;;4826180;29;87837;-13
2021/08/08 10:08:21;;;;;;;398.55;89.18;;;23.50;60.80;;;;;;4824913;29;89421;-13
2021/08/08 10:10:49;;;;;;;383.50;87.78;;;23.50;60.80;;;;;;4825932;29;87150;-13
2021/08/08 10:13:24;;;;;;;371.42;81.75;;;23.60;61.00;;;;;;4826350;29;86882;-13
2021/08/08 10:15:52;;;;;;;335.17;79.03;;;23.60;61.00;;;;;;4826144;29;87602;-13
2021/08/08 10:18:21;;;;;;;347.88;78.10;;;23.60;61.00;;;;;;4824084;29;89233;-13
2021/08/08 10:20:47;;;;;;;321.55;76.32;;;23.60;61.10;;;;;;4824689;29;88209;-13
2021/08/08 10:23:15;;;;;;;308.67;72.00;;;23.60;61.20;;;;;;4823499;29;89118;-13
2021/08/08 10:25:44;;;;;;;317.10;72.88;;;23.60;61.40;;;;;;4826616;29;91416;-13
2021/08/08 10:28:10;;;;;;;313.75;75.63;;;23.60;61.40;;;;;;4827181;29;89204;-13
2021/08/08 10:30:37;;;;;;;302.67;70.18;;;23.60;61.30;;;;;;4828795;29;87151;-13
2021/08/08 10:33:07;;;;;;;287.63;66.75;;;23.60;61.10;;;;;;4828670;29;87070;-13
2021/08/08 10:35:37;;;;;;;252.65;62.50;;;23.60;61.10;;;;;;4826438;29;89235;-12
2021/08/08 10:38:03;;;;;;;274.20;65.97;;;23.70;61.30;;;;;;4826516;29;89354;-13
2021/08/08 10:40:31;;;;;;;259.40;63.13;;;23.70;61.40;;;;;;4842337;29;87023;-14
2021/08/08 10:42:57;;;;;;;238.98;58.38;;;23.60;61.40;;;;;;4841998;29;88519;-13
2021/08/08 10:45:28;;;;;;;237.38;58.30;;;23.60;61.30;;;;;;4841023;29;90524;-13
2021/08/08 10:48:02;;;;;;;237.38;56.40;;;23.60;61.30;;;;;;4827776;29;88359;-13
2021/08/08 10:50:41;;;;;;;232.25;58.08;;;23.60;62.00;;;;;;4824354;29;87404;-13
2021/08/08 10:53:22;;;;;;;228.13;54.85;;;23.70;61.80;;;;;;4824029;29;88551;-13
2021/08/08 10:56:08;;;;;;;214.50;54.92;;;23.70;61.80;;;;;;4823893;29;89290;-13
2021/08/08 10:58:36;;;;;;;200.35;52.17;;;23.70;61.90;;;;;;4823979;29;89205;-13
2021/08/08 11:01:22;;;;;;;197.70;50.70;;;23.70;62.20;;;;;;4824220;29;87142;-13
2021/08/08 11:03:55;;;;;;;189.30;47.20;;;23.70;62.30;;;;;;4808422;29;88142;-13
2021/08/08 11:06:23;;;;;;;181.82;48.63;;;23.70;61.90;;;;;;4823997;29;89502;-13
2021/08/08 11:08:52;;;;;;;176.15;45.83;;;23.70;62.00;;;;;;4828472;29;87229;-13
2021/08/08 11:11:24;;;;;;;168.77;43.72;;;23.70;62.10;;;;;;4827951;29;88187;-13
2021/08/08 11:13:50;;;;;;;167.18;45.28;;;23.70;62.20;;;;;;4828148;29;87706;-13
2021/08/08 11:16:16;;;;;;;163.15;40.90;;;23.70;62.00;;;;;;4823067;29;88155;-13
2021/08/08 11:18:52;;;;;;;161.73;41.30;;;23.70;61.80;;;;;;4808279;29;88833;-13
2021/08/08 11:21:17;;;;;;;64.80;16.13;;;23.70;61.70;;;;;;4810395;29;87042;-13
2021/08/08 11:23:44;;;;;;;43.72;10.18;;;23.70;58.80;;;;;;4808067;29;87926;-12
2021/08/08 11:26:16;;;;;;;57.05;15.15;;;23.70;57.20;;;;;;4820921;29;89638;-13
2021/08/08 11:28:48;;;;;;;58.65;14.63;;;23.60;57.70;;;;;;4809423;29;87697;-13
2021/08/08 11:31:29;;;;;;;67.90;16.67;;;23.60;58.00;;;;;;4834601;29;87169;-13
2021/08/08 11:34:07;;;;;;;49.47;12.23;;;23.60;58.20;;;;;;4833279;29;88013;-13
2021/08/08 11:36:38;;;;;;;43.13;12.48;;;23.60;58.10;;;;;;4832332;29;91578;-13
2021/08/08 11:39:06;;;;;;;45.40;11.70;;;23.60;58.20;;;;;;4837176;29;87610;-13
2021/08/08 11:41:32;;;;;;;36.47;10.65;;;23.60;58.80;;;;;;4835808;29;87960;-13
2021/08/08 11:44:11;;;;;;;46.78;10.63;;;23.60;59.00;;;;;;4835689;29;88767;-13
2021/08/08 11:46:41;;;;;;;37.50;11.18;;;23.60;59.20;;;;;;4835108;29;90064;-13
2021/08/08 11:49:20;;;;;;;36.25;10.35;;;23.60;59.30;;;;;;4835392;29;91388;-13
2021/08/08 11:52:03;;;;;;;36.15;10.63;;;23.60;59.40;;;;;;4837387;29;88137;-13
2021/08/08 11:54:30;;;;;;;38.92;10.57;;;23.50;59.40;;;;;;4836187;29;87001;-13
2021/08/08 11:56:59;;;;;;;40.50;10.10;;;23.60;59.60;;;;;;4834445;29;89607;-13
2021/08/08 11:59:30;;;;;;;35.75;10.27;;;23.60;59.60;;;;;;4836191;29;88100;-13
2021/08/08 12:02:00;;;;;;;33.13;9.60;;;23.70;59.80;;;;;;4835087;29;88471;-13
2021/08/08 12:04:27;;;;;;;35.30;10.23;;;23.70;59.80;;;;;;4835926;29;89063;-13
2021/08/08 12:06:53;;;;;;;38.90;9.73;;;23.70;59.90;;;;;;4835711;29;93027;-13
2021/08/08 12:09:23;;;;;;;33.60;9.95;;;23.70;59.90;;;;;;4837100;29;88533;-13
2021/08/08 12:11:51;;;;;;;32.47;9.00;;;23.60;59.90;;;;;;4837312;29;87476;-13
2021/08/08 12:14:34;;;;;;;32.22;9.57;;;23.70;60.00;;;;;;4837418;29;87843;-13
2021/08/08 12:17:01;;;;;;;32.97;10.10;;;23.60;60.00;;;;;;4837452;29;87936;-13
2021/08/08 12:19:32;;;;;;;34.42;10.50;;;23.60;60.10;;;;;;4837355;29;87430;-13
2021/08/08 12:22:24;;;;;;;29.15;9.45;;;23.70;60.10;;;;;;4835939;29;87292;-13
2021/08/08 12:25:06;;;;;;;33.03;9.68;;;23.60;60.10;;;;;;4836445;29;90343;-13
2021/08/08 12:27:39;;;;;;;32.63;9.70;;;23.60;60.20;;;;;;4839978;29;89181;-13
2021/08/08 12:30:10;;;;;;;;;;;23.70;60.30;;;;;;4836584;29;89953;-13
2021/08/08 12:32:37;;;;;;;33.85;9.38;;;23.70;60.30;;;;;;4869404;28;88236;-13
2021/08/08 12:35:14;;;;;;;32.63;10.77;;;23.70;60.30;;;;;;4837509;29;88119;-13
2021/08/08 12:37:40;;;;;;;33.03;8.85;;;23.70;60.30;;;;;;4834576;29;89245;-13
2021/08/08 12:40:13;;;;;;;30.77;9.57;;;23.70;60.30;;;;;;4836452;29;87808;-13
2021/08/08 12:42:39;;;;;;;31.50;10.18;;;23.70;60.30;;;;;;4817307;29;87245;-13